createdAt,value
2022-08-11T00:01:36.696Z,100.00
2022-08-11T00:04:40.248Z,100.00
2022-08-11T00:07:45.349Z,100.00
2022-08-11T00:10:52.674Z,100.00
2022-08-11T00:13:55.708Z,100.00
2022-08-11T00:16:59.753Z,100.00
2022-08-11T00:20:13.866Z,100.00
2022-08-11T00:23:20.442Z,100.00
2022-08-11T00:26:23.803Z,100.00
2022-08-11T00:29:26.661Z,100.00
2022-08-11T00:32:30.033Z,100.00
2022-08-11T00:35:54.344Z,100.00
2022-08-11T00:39:03.958Z,100.00
2022-08-11T00:42:12.097Z,100.00
2022-08-11T00:45:22.732Z,90.85
2022-08-11T00:48:29.777Z,83.56
2022-08-11T00:52:05.136Z,87.47
2022-08-11T00:55:23.975Z,90.03
2022-08-11T00:58:50.948Z,97.04
2022-08-11T01:02:00.280Z,100.00
2022-08-11T01:05:27.254Z,94.77
2022-08-11T01:08:44.943Z,95.98
2022-08-11T01:11:56.503Z,100.00
2022-08-11T01:15:17.696Z,98.19
2022-08-11T01:18:47.579Z,87.45
2022-08-11T01:22:14.163Z,94.89
2022-08-11T01:25:56.754Z,100.00
2022-08-11T01:29:16.894Z,100.00
2022-08-11T01:32:50.092Z,100.00
2022-08-11T01:36:10.370Z,100.00
2022-08-11T01:39:32.600Z,100.00
2022-08-11T01:43:16.022Z,100.00
2022-08-11T01:46:22.664Z,100.00
2022-08-11T01:50:06.781Z,100.00
2022-08-11T01:53:02.836Z,100.00
2022-08-11T01:56:14.320Z,100.00
2022-08-11T01:59:19.531Z,100.00
2022-08-11T02:02:43.581Z,100.00
2022-08-11T02:05:56.319Z,88.42
2022-08-11T02:09:05.491Z,99.67
2022-08-11T02:12:18.969Z,100.00
2022-08-11T02:15:26.394Z,95.96
2022-08-11T02:18:54.037Z,97.03
2022-08-11T02:22:18.696Z,87.91
2022-08-11T02:25:25.307Z,90.59
2022-08-11T02:28:35.814Z,86.37
2022-08-11T02:32:15.632Z,85.18
2022-08-11T02:35:29.121Z,88.25
2022-08-11T02:38:35.726Z,86.37
2022-08-11T02:42:03.285Z,88.63
2022-08-11T02:45:29.909Z,90.05
2022-08-11T02:49:00.988Z,87.35
2022-08-11T02:52:06.804Z,84.80
2022-08-11T02:55:56.614Z,79.80
2022-08-11T02:59:11.949Z,81.57
2022-08-11T03:02:19.997Z,75.47
2022-08-11T03:05:27.417Z,80.30
2022-08-11T03:08:46.028Z,76.19
2022-08-11T03:12:18.754Z,71.83
2022-08-11T03:15:41.770Z,72.49
2022-08-11T03:18:57.376Z,69.51
2022-08-11T03:22:06.415Z,64.68
2022-08-11T03:25:13.392Z,65.33
2022-08-11T03:28:24.621Z,62.36
2022-08-11T03:31:29.468Z,64.06
2022-08-11T03:34:37.980Z,62.20
2022-08-11T03:37:52.081Z,61.53
2022-08-11T03:41:57.665Z,58.99
2022-08-11T03:44:56.976Z,60.06
2022-08-11T03:48:09.044Z,59.57
2022-08-11T03:51:19.754Z,59.38
2022-08-11T03:54:30.230Z,58.61
2022-08-11T03:57:51.521Z,58.23
2022-08-11T04:01:12.251Z,58.12
2022-08-11T04:04:24.256Z,58.02
2022-08-11T04:07:51.918Z,57.64
2022-08-11T04:11:11.650Z,57.13
2022-08-11T04:14:52.924Z,57.46
2022-08-11T04:18:22.646Z,57.59
2022-08-11T04:21:42.799Z,56.00
2022-08-11T04:25:04.250Z,54.80
2022-08-11T04:28:29.132Z,55.37
2022-08-11T04:31:50.914Z,54.62
2022-08-11T04:35:10.600Z,53.95
2022-08-11T04:38:32.582Z,54.60
2022-08-11T04:42:13.619Z,54.16
2022-08-11T04:45:35.161Z,53.22
2022-08-11T04:49:10.822Z,53.24
2022-08-11T04:52:47.468Z,53.36
2022-08-11T04:56:20.552Z,53.11
2022-08-11T05:00:01.390Z,52.62
2022-08-11T05:03:23.311Z,51.99
2022-08-11T05:06:35.306Z,53.13
2022-08-11T05:09:55.683Z,52.14
2022-08-11T05:13:22.226Z,52.45
2022-08-11T05:16:46.068Z,52.98
2022-08-11T05:20:06.260Z,52.51
2022-08-11T05:23:28.985Z,52.88
2022-08-11T05:26:57.115Z,52.92
2022-08-11T05:30:21.278Z,52.91
2022-08-11T05:33:49.745Z,53.91
2022-08-11T05:36:59.188Z,54.29
2022-08-11T05:40:30.069Z,53.94
2022-08-11T05:44:21.755Z,55.18
2022-08-11T05:47:44.173Z,54.20
2022-08-11T05:51:10.468Z,54.96
2022-08-11T05:54:34.940Z,55.41
2022-08-11T05:57:51.156Z,54.83
2022-08-11T06:00:54.962Z,55.98
2022-08-11T06:04:16.915Z,55.44
2022-08-11T06:07:19.958Z,55.72
2022-08-11T06:10:27.844Z,56.14
2022-08-11T06:13:32.756Z,56.26
2022-08-11T06:16:35.700Z,57.99
2022-08-11T06:19:40.473Z,56.63
2022-08-11T06:22:47.570Z,57.19
2022-08-11T06:25:56.515Z,57.32
2022-08-11T06:29:03.437Z,56.29
2022-08-11T06:32:06.992Z,56.89
2022-08-11T06:35:13.801Z,59.29
2022-08-11T06:38:21.814Z,60.79
2022-08-11T06:41:34.437Z,60.38
2022-08-11T06:44:43.722Z,60.13
2022-08-11T06:47:47.769Z,60.46
2022-08-11T06:51:10.877Z,61.27
2022-08-11T06:54:15.841Z,58.52
2022-08-11T06:57:37.317Z,59.19
2022-08-11T07:00:41.938Z,59.13
2022-08-11T07:03:45.660Z,58.87
2022-08-11T07:07:10.827Z,58.63
2022-08-11T07:10:49.776Z,57.83
2022-08-11T07:14:10.976Z,55.92
2022-08-11T07:17:21.513Z,56.27
2022-08-11T07:20:43.951Z,55.45
2022-08-11T07:24:04.367Z,55.05
2022-08-11T07:27:26.633Z,54.77
2022-08-11T07:30:30.133Z,54.49
2022-08-11T07:34:08.492Z,54.59
2022-08-11T07:37:10.427Z,53.83
2022-08-11T07:40:13.353Z,53.34
2022-08-11T07:43:16.577Z,53.77
2022-08-11T07:46:37.063Z,54.01
2022-08-11T07:49:59.524Z,54.02
2022-08-11T07:53:03.817Z,52.73
2022-08-11T07:56:06.874Z,52.60
2022-08-11T08:00:00.064Z,53.05
2022-08-11T08:03:08.632Z,52.52
2022-08-11T08:06:36.185Z,51.82
2022-08-11T08:09:59.644Z,51.87
2022-08-11T08:13:19.923Z,50.89
2022-08-11T08:16:40.386Z,51.61
2022-08-11T08:19:44.629Z,51.07
2022-08-11T08:22:49.964Z,51.36
2022-08-11T08:25:53.256Z,51.73
2022-08-11T08:29:16.964Z,51.16
2022-08-11T08:32:19.732Z,50.96
2022-08-11T08:35:22.924Z,50.57
2022-08-11T08:38:27.225Z,50.92
2022-08-11T08:41:31.267Z,50.55
2022-08-11T08:44:38.831Z,50.30
2022-08-11T08:47:44.134Z,49.66
2022-08-11T08:51:07.984Z,50.77
2022-08-11T08:54:13.940Z,49.71
2022-08-11T08:57:18.762Z,48.81
2022-08-11T09:00:23.601Z,49.43
2022-08-11T09:04:05.030Z,51.59
2022-08-11T09:06:52.266Z,49.04
2022-08-11T09:09:59.159Z,49.26
2022-08-11T09:13:02.303Z,49.09
2022-08-11T09:16:06.746Z,49.16
2022-08-11T09:19:09.821Z,47.97
2022-08-11T09:22:30.215Z,45.98
2022-08-11T09:25:52.696Z,46.83
2022-08-11T09:28:55.941Z,44.51
2022-08-11T09:31:59.554Z,45.37
2022-08-11T09:35:04.705Z,46.03
2022-08-11T09:38:25.057Z,46.38
2022-08-11T09:41:29.226Z,47.76
2022-08-11T09:44:53.976Z,47.22
2022-08-11T09:47:58.226Z,45.15
2022-08-11T09:51:01.622Z,39.78
2022-08-11T09:54:06.602Z,36.11
2022-08-11T09:57:28.168Z,40.96
2022-08-11T10:00:31.964Z,45.16
2022-08-11T10:03:40.237Z,46.31
2022-08-11T10:07:01.686Z,46.50
2022-08-11T10:10:08.757Z,48.27
2022-08-11T10:14:31.820Z,45.27
2022-08-11T10:16:41.365Z,40.82
2022-08-11T10:19:48.886Z,38.78
2022-08-11T10:23:24.469Z,35.68
2022-08-11T10:27:03.211Z,34.14
2022-08-11T10:30:25.439Z,31.85
2022-08-11T10:33:59.053Z,38.78
2022-08-11T10:37:03.547Z,37.72
2022-08-11T10:40:09.087Z,32.14
2022-08-11T10:43:14.235Z,30.68
2022-08-11T10:46:39.058Z,31.85
2022-08-11T10:49:42.172Z,32.89
2022-08-11T10:53:03.422Z,36.76
2022-08-11T10:56:24.687Z,37.28
2022-08-11T10:59:28.664Z,36.76
2022-08-11T11:02:33.308Z,39.14
2022-08-11T11:05:38.714Z,39.09
2022-08-11T11:09:04.715Z,40.41
2022-08-11T11:12:27.507Z,35.58
2022-08-11T11:15:48.785Z,31.94
2022-08-11T11:19:00.905Z,30.09
2022-08-11T11:22:24.311Z,32.42
2022-08-11T11:25:34.334Z,30.98
2022-08-11T11:28:52.906Z,31.41
2022-08-11T11:32:11.577Z,33.30
2022-08-11T11:35:34.053Z,36.96
2022-08-11T11:38:36.952Z,36.24
2022-08-11T11:41:40.121Z,33.78
2022-08-11T11:44:45.725Z,33.56
2022-08-11T11:47:53.781Z,33.93
2022-08-11T11:50:58.620Z,33.40
2022-08-11T11:54:03.380Z,31.66
2022-08-11T11:57:20.489Z,32.56
2022-08-11T12:00:43.446Z,33.70
2022-08-11T12:03:47.532Z,33.56
2022-08-11T12:07:11.823Z,36.44
2022-08-11T12:10:14.839Z,34.15
2022-08-11T12:13:36.017Z,34.11
2022-08-11T12:16:40.713Z,39.49
2022-08-11T12:19:51.452Z,39.76
2022-08-11T12:23:15.521Z,40.65
2022-08-11T12:26:36.606Z,38.35
2022-08-11T12:29:41.281Z,38.79
2022-08-11T12:32:48.340Z,39.31
2022-08-11T12:36:01.117Z,34.06
2022-08-11T12:39:23.387Z,39.14
2022-08-11T12:42:55.294Z,38.31
2022-08-11T12:46:03.834Z,37.50
2022-08-11T12:49:28.841Z,38.96
2022-08-11T12:52:38.483Z,36.07
2022-08-11T12:56:07.489Z,37.86
2022-08-11T12:59:28.797Z,39.14
2022-08-11T13:02:49.368Z,38.49
2022-08-11T13:05:54.752Z,37.39
2022-08-11T13:09:01.550Z,37.53
2022-08-11T13:12:24.526Z,38.57
2022-08-11T13:15:29.229Z,33.16
2022-08-11T13:18:33.171Z,38.19
2022-08-11T13:21:37.203Z,40.43
2022-08-11T13:24:50.552Z,39.91
2022-08-11T13:27:57.111Z,39.55
2022-08-11T13:31:15.614Z,39.64
2022-08-11T13:34:20.029Z,40.56
2022-08-11T13:38:19.809Z,39.87
2022-08-11T13:40:55.649Z,38.90
2022-08-11T13:44:02.705Z,37.54
2022-08-11T13:47:07.787Z,39.56
2022-08-11T13:50:13.588Z,37.09
2022-08-11T13:53:18.242Z,40.33
2022-08-11T13:56:23.135Z,38.83
2022-08-11T13:59:31.107Z,39.13
2022-08-11T14:02:34.836Z,37.25
2022-08-11T14:05:45.991Z,38.99
2022-08-11T14:08:53.564Z,39.38
2022-08-11T14:12:20.114Z,40.39
2022-08-11T14:15:29.967Z,40.85
2022-08-11T14:18:33.785Z,40.50
2022-08-11T14:21:55.692Z,41.00
2022-08-11T14:24:59.376Z,40.38
2022-08-11T14:28:35.011Z,39.07
2022-08-11T14:31:27.405Z,41.84
2022-08-11T14:34:30.724Z,39.96
2022-08-11T14:37:34.923Z,38.61
2022-08-11T14:40:56.255Z,38.35
2022-08-11T14:44:16.440Z,41.54
2022-08-11T14:47:24.469Z,40.65
2022-08-11T14:50:28.515Z,40.91
2022-08-11T14:53:31.452Z,40.23
2022-08-11T14:56:37.238Z,39.01
2022-08-11T14:59:41.090Z,39.42
2022-08-11T15:03:09.808Z,41.27
2022-08-11T15:06:13.204Z,39.74
2022-08-11T15:09:18.460Z,40.75
2022-08-11T15:12:32.715Z,39.38
2022-08-11T15:15:54.268Z,39.82
2022-08-11T15:18:59.013Z,40.93
2022-08-11T15:22:24.805Z,40.31
2022-08-11T15:25:31.219Z,40.36
2022-08-11T15:28:53.162Z,40.46
2022-08-11T15:32:14.261Z,39.06
2022-08-11T15:35:39.698Z,41.52
2022-08-11T15:38:45.492Z,39.92
2022-08-11T15:42:08.619Z,41.14
2022-08-11T15:45:29.649Z,41.38
2022-08-11T15:48:37.287Z,41.05
2022-08-11T15:51:44.158Z,41.12
2022-08-11T15:54:48.498Z,41.19
2022-08-11T15:58:09.415Z,41.43
2022-08-11T16:01:31.252Z,41.44
2022-08-11T16:04:36.199Z,41.91
2022-08-11T16:07:50.044Z,41.66
2022-08-11T16:10:56.408Z,42.68
2022-08-11T16:14:19.351Z,41.78
2022-08-11T16:17:24.397Z,42.66
2022-08-11T16:20:28.235Z,42.22
2022-08-11T16:23:32.445Z,41.76
2022-08-11T16:27:09.295Z,42.18
2022-08-11T16:30:05.186Z,42.30
2022-08-11T16:33:48.485Z,43.94
2022-08-11T16:36:53.078Z,44.43
2022-08-11T16:40:02.633Z,43.91
2022-08-11T16:43:24.718Z,45.96
2022-08-11T16:46:50.916Z,44.14
2022-08-11T16:49:59.280Z,45.85
2022-08-11T16:53:02.373Z,45.96
2022-08-11T16:56:08.857Z,46.86
2022-08-11T16:59:17.377Z,47.77
2022-08-11T17:02:37.295Z,47.31
2022-08-11T17:06:10.775Z,47.06
2022-08-11T17:09:33.764Z,47.56
2022-08-11T17:12:57.241Z,47.76
2022-08-11T17:16:09.044Z,47.93
2022-08-11T17:19:14.547Z,47.19
2022-08-11T17:22:35.359Z,47.91
2022-08-11T17:26:02.759Z,47.98
2022-08-11T17:29:06.635Z,47.67
2022-08-11T17:32:28.579Z,48.02
2022-08-11T17:35:35.771Z,48.73
2022-08-11T17:38:39.967Z,48.80
2022-08-11T17:42:00.575Z,48.25
2022-08-11T17:45:24.099Z,48.59
2022-08-11T17:48:28.619Z,50.35
2022-08-11T17:51:50.348Z,48.86
2022-08-11T17:55:11.628Z,49.30
2022-08-11T17:58:35.173Z,49.54
2022-08-11T18:01:41.492Z,49.30
2022-08-11T18:04:48.077Z,49.40
2022-08-11T18:08:10.589Z,50.17
2022-08-11T18:12:06.679Z,49.38
2022-08-11T18:15:14.090Z,49.57
2022-08-11T18:18:35.688Z,49.83
2022-08-11T18:22:03.573Z,50.93
2022-08-11T18:25:43.267Z,51.11
2022-08-11T18:29:08.614Z,51.38
2022-08-11T18:32:49.320Z,50.48
2022-08-11T18:36:13.728Z,50.93
2022-08-11T18:39:35.485Z,51.46
2022-08-11T18:42:57.832Z,51.62
2022-08-11T18:46:21.504Z,51.39
2022-08-11T18:50:02.569Z,51.56
2022-08-11T18:53:29.658Z,52.95
2022-08-11T18:56:50.362Z,52.53
2022-08-11T19:00:13.280Z,53.01
2022-08-11T19:03:43.526Z,53.64
2022-08-11T19:07:12.660Z,55.70
2022-08-11T19:10:41.029Z,54.81
2022-08-11T19:14:03.279Z,55.62
2022-08-11T19:17:43.659Z,55.55
2022-08-11T19:21:07.750Z,55.62
2022-08-11T19:24:34.025Z,56.99
2022-08-11T19:27:58.944Z,57.25
2022-08-11T19:31:19.720Z,57.70
2022-08-11T19:34:41.796Z,58.81
2022-08-11T19:38:03.565Z,57.99
2022-08-11T19:41:51.823Z,59.95
2022-08-11T19:45:06.645Z,59.50
2022-08-11T19:48:32.218Z,58.71
2022-08-11T19:51:54.381Z,59.33
2022-08-11T19:55:15.685Z,60.44
2022-08-11T19:58:36.268Z,59.36
2022-08-11T20:02:12.621Z,61.62
2022-08-11T20:05:35.385Z,61.37
2022-08-11T20:08:58.998Z,60.55
2022-08-11T20:12:21.156Z,62.08
2022-08-11T20:15:45.931Z,60.99
2022-08-11T20:19:08.931Z,62.06
2022-08-11T20:22:32.982Z,62.04
2022-08-11T20:26:03.438Z,63.51
2022-08-11T20:29:29.945Z,64.33
2022-08-11T20:32:50.382Z,61.48
2022-08-11T20:36:12.585Z,62.97
2022-08-11T20:39:33.548Z,63.70
2022-08-11T20:42:55.647Z,64.42
2022-08-11T20:46:18.154Z,65.75
2022-08-11T20:49:48.797Z,63.51
2022-08-11T20:53:14.441Z,64.51
2022-08-11T20:56:36.549Z,63.76
2022-08-11T20:59:58.118Z,65.59
2022-08-11T21:03:35.694Z,65.18
2022-08-11T21:06:59.673Z,63.64
2022-08-11T21:10:23.991Z,63.26
2022-08-11T21:13:46.252Z,63.83
2022-08-11T21:17:27.484Z,63.29
2022-08-11T21:20:48.611Z,65.91
2022-08-11T21:24:10.655Z,63.99
2022-08-11T21:27:35.616Z,64.67
2022-08-11T21:30:57.956Z,65.42
2022-08-11T21:34:19.215Z,65.31
2022-08-11T21:37:39.767Z,66.53
2022-08-11T21:41:01.680Z,64.17
2022-08-11T21:44:24.738Z,65.64
2022-08-11T21:47:45.686Z,66.62
2022-08-11T21:51:06.231Z,64.32
2022-08-11T21:54:27.420Z,64.92
2022-08-11T21:57:49.998Z,67.44
2022-08-11T22:01:13.263Z,65.36
2022-08-11T22:04:35.457Z,71.59
2022-08-11T22:07:55.706Z,72.27
2022-08-11T22:11:16.321Z,73.28
2022-08-11T22:14:53.035Z,73.51
2022-08-11T22:18:14.635Z,72.26
2022-08-11T22:22:01.311Z,72.63
2022-08-11T22:25:18.510Z,65.69
2022-08-11T22:28:39.024Z,73.64
2022-08-11T22:31:59.549Z,74.88
2022-08-11T22:35:21.736Z,74.41
2022-08-11T22:38:42.885Z,69.72
2022-08-11T22:42:03.426Z,73.57
2022-08-11T22:45:24.238Z,69.99
2022-08-11T22:48:44.654Z,71.80
2022-08-11T22:52:06.746Z,71.60
2022-08-11T22:55:27.272Z,72.43
2022-08-11T22:58:48.736Z,74.28
2022-08-11T23:02:09.325Z,75.38
2022-08-11T23:05:32.040Z,75.84
2022-08-11T23:08:55.291Z,76.00
2022-08-11T23:12:16.370Z,71.21
2022-08-11T23:15:37.831Z,76.69
2022-08-11T23:19:01.469Z,69.66
2022-08-11T23:22:22.549Z,71.74
2022-08-11T23:25:45.586Z,76.97
2022-08-11T23:29:06.342Z,76.29
2022-08-11T23:32:26.722Z,76.64
2022-08-11T23:35:53.549Z,78.93
2022-08-11T23:39:16.659Z,77.35
2022-08-11T23:42:38.454Z,76.20
2022-08-11T23:46:01.016Z,78.22
2022-08-11T23:49:22.102Z,78.55
2022-08-11T23:52:43.117Z,79.50
2022-08-11T23:56:04.778Z,78.11
2022-08-11T23:59:26.985Z,77.25
